sensor_id;sensor_type;location;lat;lon;timestamp;temperature;humidity
6841;DHT22;3458;53.678;14.080;2024-01-30T00:01:19;4.50;99.90
6841;DHT22;3458;53.678;14.080;2024-01-30T00:03:45;4.50;99.90
6841;DHT22;3458;53.678;14.080;2024-01-30T00:06:11;4.40;99.90
6841;DHT22;3458;53.678;14.080;2024-01-30T00:08:37;4.50;99.90
6841;DHT22;3458;53.678;14.080;2024-01-30T00:11:03;4.50;99.90
6841;DHT22;3458;53.678;14.080;2024-01-30T00:13:28;4.40;99.90
6841;DHT22;3458;53.678;14.080;2024-01-30T00:15:54;4.40;99.90
6841;DHT22;3458;53.678;14.080;2024-01-30T00:18:19;4.40;99.90
6841;DHT22;3458;53.678;14.080;2024-01-30T00:20:45;4.40;99.90
6841;DHT22;3458;53.678;14.080;2024-01-30T00:23:10;4.40;99.90
6841;DHT22;3458;53.678;14.080;2024-01-30T00:25:36;4.40;99.90
6841;DHT22;3458;53.678;14.080;2024-01-30T00:28:01;4.40;99.90
6841;DHT22;3458;53.678;14.080;2024-01-30T00:30:27;4.30;99.90
6841;DHT22;3458;53.678;14.080;2024-01-30T00:32:53;4.30;99.90
6841;DHT22;3458;53.678;14.080;2024-01-30T00:35:19;4.30;99.90
6841;DHT22;3458;53.678;14.080;2024-01-30T00:37:44;4.30;99.90
6841;DHT22;3458;53.678;14.080;2024-01-30T00:40:10;4.30;99.90
6841;DHT22;3458;53.678;14.080;2024-01-30T00:42:43;4.30;99.90
6841;DHT22;3458;53.678;14.080;2024-01-30T00:45:16;4.20;99.90
6841;DHT22;3458;53.678;14.080;2024-01-30T00:47:42;4.10;99.90
6841;DHT22;3458;53.678;14.080;2024-01-30T00:50:07;4.10;99.90
6841;DHT22;3458;53.678;14.080;2024-01-30T00:52:33;4.10;99.90
6841;DHT22;3458;53.678;14.080;2024-01-30T00:54:59;4.10;99.90
6841;DHT22;3458;53.678;14.080;2024-01-30T00:57:25;4.00;99.90
6841;DHT22;3458;53.678;14.080;2024-01-30T00:59:50;4.00;99.90
6841;DHT22;3458;53.678;14.080;2024-01-30T01:02:16;4.00;99.90
6841;DHT22;3458;53.678;14.080;2024-01-30T01:04:43;3.90;99.90
6841;DHT22;3458;53.678;14.080;2024-01-30T01:07:09;3.90;99.90
6841;DHT22;3458;53.678;14.080;2024-01-30T01:09:35;4.00;99.90
6841;DHT22;3458;53.678;14.080;2024-01-30T01:12:02;4.00;99.90
6841;DHT22;3458;53.678;14.080;2024-01-30T01:14:27;4.00;99.90
6841;DHT22;3458;53.678;14.080;2024-01-30T01:16:53;4.00;99.90
6841;DHT22;3458;53.678;14.080;2024-01-30T01:19:18;4.00;99.90
6841;DHT22;3458;53.678;14.080;2024-01-30T01:21:44;4.00;99.90
6841;DHT22;3458;53.678;14.080;2024-01-30T01:24:09;4.00;99.90
6841;DHT22;3458;53.678;14.080;2024-01-30T01:26:35;4.00;99.90
6841;DHT22;3458;53.678;14.080;2024-01-30T01:29:00;4.00;99.90
6841;DHT22;3458;53.678;14.080;2024-01-30T01:31:25;4.00;99.90
6841;DHT22;3458;53.678;14.080;2024-01-30T01:33:54;4.00;99.90
6841;DHT22;3458;53.678;14.080;2024-01-30T01:36:20;4.00;99.90
6841;DHT22;3458;53.678;14.080;2024-01-30T01:38:45;4.00;99.90
6841;DHT22;3458;53.678;14.080;2024-01-30T01:41:11;3.90;99.90
6841;DHT22;3458;53.678;14.080;2024-01-30T01:43:36;3.90;99.90
6841;DHT22;3458;53.678;14.080;2024-01-30T01:46:04;3.90;99.90
6841;DHT22;3458;53.678;14.080;2024-01-30T01:48:30;3.90;99.90
6841;DHT22;3458;53.678;14.080;2024-01-30T01:50:56;3.80;99.90
6841;DHT22;3458;53.678;14.080;2024-01-30T01:53:22;3.80;99.90
6841;DHT22;3458;53.678;14.080;2024-01-30T01:55:47;3.80;99.90
6841;DHT22;3458;53.678;14.080;2024-01-30T01:58:14;3.70;99.90
6841;DHT22;3458;53.678;14.080;2024-01-30T02:00:40;3.70;99.90
6841;DHT22;3458;53.678;14.080;2024-01-30T02:03:09;3.70;99.90
6841;DHT22;3458;53.678;14.080;2024-01-30T02:05:35;3.70;99.90
6841;DHT22;3458;53.678;14.080;2024-01-30T02:08:01;3.70;99.90
6841;DHT22;3458;53.678;14.080;2024-01-30T02:10:27;3.70;99.90
6841;DHT22;3458;53.678;14.080;2024-01-30T02:12:52;3.60;99.90
6841;DHT22;3458;53.678;14.080;2024-01-30T02:15:18;3.70;99.90
6841;DHT22;3458;53.678;14.080;2024-01-30T02:17:44;3.70;99.90
6841;DHT22;3458;53.678;14.080;2024-01-30T02:20:09;3.70;99.90
6841;DHT22;3458;53.678;14.080;2024-01-30T02:22:36;3.70;99.90
6841;DHT22;3458;53.678;14.080;2024-01-30T02:25:03;3.60;99.90
6841;DHT22;3458;53.678;14.080;2024-01-30T02:27:28;3.60;99.90
6841;DHT22;3458;53.678;14.080;2024-01-30T02:29:54;3.60;99.90
6841;DHT22;3458;53.678;14.080;2024-01-30T02:32:19;3.60;99.90
6841;DHT22;3458;53.678;14.080;2024-01-30T02:34:45;3.60;99.90
6841;DHT22;3458;53.678;14.080;2024-01-30T02:37:10;3.60;99.90
6841;DHT22;3458;53.678;14.080;2024-01-30T02:39:35;3.60;99.90
6841;DHT22;3458;53.678;14.080;2024-01-30T02:42:01;3.60;99.90
6841;DHT22;3458;53.678;14.080;2024-01-30T02:44:26;3.70;99.90
6841;DHT22;3458;53.678;14.080;2024-01-30T02:46:52;3.60;99.90
6841;DHT22;3458;53.678;14.080;2024-01-30T02:49:19;3.60;99.90
6841;DHT22;3458;53.678;14.080;2024-01-30T02:51:45;3.60;99.90
6841;DHT22;3458;53.678;14.080;2024-01-30T02:54:10;3.60;99.90
6841;DHT22;3458;53.678;14.080;2024-01-30T02:56:36;3.60;99.90
6841;DHT22;3458;53.678;14.080;2024-01-30T02:59:01;3.50;99.90
6841;DHT22;3458;53.678;14.080;2024-01-30T03:01:26;3.50;99.90
6841;DHT22;3458;53.678;14.080;2024-01-30T03:03:52;3.50;99.90
6841;DHT22;3458;53.678;14.080;2024-01-30T03:06:17;3.50;99.90
6841;DHT22;3458;53.678;14.080;2024-01-30T03:08:45;3.50;99.90
6841;DHT22;3458;53.678;14.080;2024-01-30T03:11:10;3.40;99.90
6841;DHT22;3458;53.678;14.080;2024-01-30T03:13:36;3.40;99.90
6841;DHT22;3458;53.678;14.080;2024-01-30T03:16:01;3.40;99.90
6841;DHT22;3458;53.678;14.080;2024-01-30T03:18:28;3.40;99.90
6841;DHT22;3458;53.678;14.080;2024-01-30T03:20:53;3.40;99.90
6841;DHT22;3458;53.678;14.080;2024-01-30T03:23:19;3.40;99.90
6841;DHT22;3458;53.678;14.080;2024-01-30T03:25:44;3.40;99.90
6841;DHT22;3458;53.678;14.080;2024-01-30T03:28:09;3.40;99.90
6841;DHT22;3458;53.678;14.080;2024-01-30T03:30:35;3.40;99.90
6841;DHT22;3458;53.678;14.080;2024-01-30T03:33:00;3.40;99.90
6841;DHT22;3458;53.678;14.080;2024-01-30T03:35:26;3.30;99.90
6841;DHT22;3458;53.678;14.080;2024-01-30T03:37:51;3.40;99.90
6841;DHT22;3458;53.678;14.080;2024-01-30T03:40:17;3.30;99.90
6841;DHT22;3458;53.678;14.080;2024-01-30T03:42:42;3.30;99.90
6841;DHT22;3458;53.678;14.080;2024-01-30T03:45:08;3.30;99.90
6841;DHT22;3458;53.678;14.080;2024-01-30T03:47:34;3.30;99.90
6841;DHT22;3458;53.678;14.080;2024-01-30T03:49:59;3.30;99.90
6841;DHT22;3458;53.678;14.080;2024-01-30T03:52:25;3.30;99.90
6841;DHT22;3458;53.678;14.080;2024-01-30T03:54:50;3.30;99.90
6841;DHT22;3458;53.678;14.080;2024-01-30T03:57:16;3.20;99.90
6841;DHT22;3458;53.678;14.080;2024-01-30T03:59:42;3.20;99.90
6841;DHT22;3458;53.678;14.080;2024-01-30T04:02:08;3.20;99.90
6841;DHT22;3458;53.678;14.080;2024-01-30T04:04:33;3.30;99.90
6841;DHT22;3458;53.678;14.080;2024-01-30T04:06:58;3.30;99.90
6841;DHT22;3458;53.678;14.080;2024-01-30T04:09:24;3.30;99.90
6841;DHT22;3458;53.678;14.080;2024-01-30T04:11:51;3.30;99.90
6841;DHT22;3458;53.678;14.080;2024-01-30T04:14:17;3.30;99.90
6841;DHT22;3458;53.678;14.080;2024-01-30T04:16:42;3.30;99.90
6841;DHT22;3458;53.678;14.080;2024-01-30T04:19:08;3.20;99.90
6841;DHT22;3458;53.678;14.080;2024-01-30T04:21:33;3.20;99.90
6841;DHT22;3458;53.678;14.080;2024-01-30T04:23:59;3.20;99.90
6841;DHT22;3458;53.678;14.080;2024-01-30T04:26:24;3.20;99.90
6841;DHT22;3458;53.678;14.080;2024-01-30T04:28:50;3.20;99.90
6841;DHT22;3458;53.678;14.080;2024-01-30T04:31:15;3.20;99.90
6841;DHT22;3458;53.678;14.080;2024-01-30T04:33:41;3.20;99.90
6841;DHT22;3458;53.678;14.080;2024-01-30T04:36:08;3.20;99.90
6841;DHT22;3458;53.678;14.080;2024-01-30T04:38:35;3.20;99.90
6841;DHT22;3458;53.678;14.080;2024-01-30T04:41:00;3.20;99.90
6841;DHT22;3458;53.678;14.080;2024-01-30T04:43:26;3.20;99.90
6841;DHT22;3458;53.678;14.080;2024-01-30T04:45:52;3.20;99.90
6841;DHT22;3458;53.678;14.080;2024-01-30T04:48:18;3.20;99.90
6841;DHT22;3458;53.678;14.080;2024-01-30T04:50:43;3.20;99.90
6841;DHT22;3458;53.678;14.080;2024-01-30T04:53:09;3.20;99.90
6841;DHT22;3458;53.678;14.080;2024-01-30T04:55:35;3.30;99.90
6841;DHT22;3458;53.678;14.080;2024-01-30T04:58:01;3.30;99.90
6841;DHT22;3458;53.678;14.080;2024-01-30T05:00:27;3.30;99.90
6841;DHT22;3458;53.678;14.080;2024-01-30T05:02:53;3.20;99.90
6841;DHT22;3458;53.678;14.080;2024-01-30T05:05:19;3.20;99.90
6841;DHT22;3458;53.678;14.080;2024-01-30T05:07:46;3.20;99.90
6841;DHT22;3458;53.678;14.080;2024-01-30T05:10:11;3.20;99.90
6841;DHT22;3458;53.678;14.080;2024-01-30T05:12:38;3.20;99.90
6841;DHT22;3458;53.678;14.080;2024-01-30T05:15:04;3.30;99.90
6841;DHT22;3458;53.678;14.080;2024-01-30T05:17:30;3.20;99.90
6841;DHT22;3458;53.678;14.080;2024-01-30T05:19:55;3.30;99.90
6841;DHT22;3458;53.678;14.080;2024-01-30T05:22:21;3.30;99.90
6841;DHT22;3458;53.678;14.080;2024-01-30T05:24:46;3.30;99.90
6841;DHT22;3458;53.678;14.080;2024-01-30T05:27:12;3.20;99.90
6841;DHT22;3458;53.678;14.080;2024-01-30T05:29:39;3.20;99.90
6841;DHT22;3458;53.678;14.080;2024-01-30T05:32:05;3.20;99.90
6841;DHT22;3458;53.678;14.080;2024-01-30T05:34:31;3.20;99.90
6841;DHT22;3458;53.678;14.080;2024-01-30T05:36:56;3.20;99.90
6841;DHT22;3458;53.678;14.080;2024-01-30T05:39:22;3.30;99.90
6841;DHT22;3458;53.678;14.080;2024-01-30T05:41:47;3.20;99.90
6841;DHT22;3458;53.678;14.080;2024-01-30T05:44:13;3.20;99.90
6841;DHT22;3458;53.678;14.080;2024-01-30T05:46:38;3.20;99.90
6841;DHT22;3458;53.678;14.080;2024-01-30T05:49:04;3.20;99.90
6841;DHT22;3458;53.678;14.080;2024-01-30T05:51:29;3.20;99.90
6841;DHT22;3458;53.678;14.080;2024-01-30T05:53:55;3.20;99.90
6841;DHT22;3458;53.678;14.080;2024-01-30T05:56:20;3.20;99.90
6841;DHT22;3458;53.678;14.080;2024-01-30T05:58:46;3.30;99.90
6841;DHT22;3458;53.678;14.080;2024-01-30T06:01:11;3.30;99.90
6841;DHT22;3458;53.678;14.080;2024-01-30T06:03:37;3.30;99.90
6841;DHT22;3458;53.678;14.080;2024-01-30T06:06:04;3.30;99.90
6841;DHT22;3458;53.678;14.080;2024-01-30T06:08:29;3.30;99.90
6841;DHT22;3458;53.678;14.080;2024-01-30T06:10:55;3.30;99.90
6841;DHT22;3458;53.678;14.080;2024-01-30T06:13:20;3.30;99.90
6841;DHT22;3458;53.678;14.080;2024-01-30T06:15:46;3.30;99.90
6841;DHT22;3458;53.678;14.080;2024-01-30T06:18:11;3.30;99.90
6841;DHT22;3458;53.678;14.080;2024-01-30T06:20:37;3.30;99.90
6841;DHT22;3458;53.678;14.080;2024-01-30T06:23:02;3.30;99.90
6841;DHT22;3458;53.678;14.080;2024-01-30T06:25:28;3.30;99.90
6841;DHT22;3458;53.678;14.080;2024-01-30T06:27:54;3.20;99.90
6841;DHT22;3458;53.678;14.080;2024-01-30T06:30:19;3.20;99.90
6841;DHT22;3458;53.678;14.080;2024-01-30T06:32:45;3.20;99.90
6841;DHT22;3458;53.678;14.080;2024-01-30T06:35:11;3.20;99.90
6841;DHT22;3458;53.678;14.080;2024-01-30T06:37:37;3.20;99.90
6841;DHT22;3458;53.678;14.080;2024-01-30T06:40:03;3.20;99.90
6841;DHT22;3458;53.678;14.080;2024-01-30T06:42:30;3.20;99.90
6841;DHT22;3458;53.678;14.080;2024-01-30T06:44:56;3.20;99.90
6841;DHT22;3458;53.678;14.080;2024-01-30T06:47:21;3.20;99.90
6841;DHT22;3458;53.678;14.080;2024-01-30T06:49:47;3.20;99.90
6841;DHT22;3458;53.678;14.080;2024-01-30T06:52:12;3.10;99.90
6841;DHT22;3458;53.678;14.080;2024-01-30T06:54:38;3.10;99.90
6841;DHT22;3458;53.678;14.080;2024-01-30T06:57:05;3.10;99.90
6841;DHT22;3458;53.678;14.080;2024-01-30T06:59:34;3.10;99.90
6841;DHT22;3458;53.678;14.080;2024-01-30T07:02:00;3.00;99.90
6841;DHT22;3458;53.678;14.080;2024-01-30T07:04:25;3.00;99.90
6841;DHT22;3458;53.678;14.080;2024-01-30T07:06:51;3.00;99.90
6841;DHT22;3458;53.678;14.080;2024-01-30T07:09:18;3.00;99.90
6841;DHT22;3458;53.678;14.080;2024-01-30T07:11:44;3.00;99.90
6841;DHT22;3458;53.678;14.080;2024-01-30T07:14:09;2.90;99.90
6841;DHT22;3458;53.678;14.080;2024-01-30T07:16:35;3.00;99.90
6841;DHT22;3458;53.678;14.080;2024-01-30T07:19:00;3.00;99.90
6841;DHT22;3458;53.678;14.080;2024-01-30T07:21:25;3.00;99.90
6841;DHT22;3458;53.678;14.080;2024-01-30T07:23:56;2.90;99.90
6841;DHT22;3458;53.678;14.080;2024-01-30T07:26:22;2.90;99.90
6841;DHT22;3458;53.678;14.080;2024-01-30T07:28:47;3.00;99.90
6841;DHT22;3458;53.678;14.080;2024-01-30T07:31:13;3.00;99.90
6841;DHT22;3458;53.678;14.080;2024-01-30T07:33:38;3.00;99.90
6841;DHT22;3458;53.678;14.080;2024-01-30T07:36:04;3.00;99.90
6841;DHT22;3458;53.678;14.080;2024-01-30T07:38:32;3.00;99.90
6841;DHT22;3458;53.678;14.080;2024-01-30T07:40:57;3.00;99.90
6841;DHT22;3458;53.678;14.080;2024-01-30T07:43:23;3.00;99.90
6841;DHT22;3458;53.678;14.080;2024-01-30T07:45:48;3.00;99.90
6841;DHT22;3458;53.678;14.080;2024-01-30T07:48:14;3.00;99.90
6841;DHT22;3458;53.678;14.080;2024-01-30T07:50:39;3.00;99.90
6841;DHT22;3458;53.678;14.080;2024-01-30T07:53:05;3.10;99.90
6841;DHT22;3458;53.678;14.080;2024-01-30T07:55:30;3.00;99.90
6841;DHT22;3458;53.678;14.080;2024-01-30T07:57:57;3.10;99.90
6841;DHT22;3458;53.678;14.080;2024-01-30T08:00:24;3.00;99.90
6841;DHT22;3458;53.678;14.080;2024-01-30T08:02:49;3.10;99.90
6841;DHT22;3458;53.678;14.080;2024-01-30T08:05:15;3.10;99.90
6841;DHT22;3458;53.678;14.080;2024-01-30T08:07:43;3.10;99.90
6841;DHT22;3458;53.678;14.080;2024-01-30T08:10:11;3.10;99.90
6841;DHT22;3458;53.678;14.080;2024-01-30T08:12:37;3.10;99.90
6841;DHT22;3458;53.678;14.080;2024-01-30T08:15:04;3.20;99.90
6841;DHT22;3458;53.678;14.080;2024-01-30T08:17:30;3.20;99.90
6841;DHT22;3458;53.678;14.080;2024-01-30T08:19:55;3.20;99.90
6841;DHT22;3458;53.678;14.080;2024-01-30T08:22:20;3.30;99.90
6841;DHT22;3458;53.678;14.080;2024-01-30T08:24:46;3.40;99.90
6841;DHT22;3458;53.678;14.080;2024-01-30T08:27:12;3.40;99.90
6841;DHT22;3458;53.678;14.080;2024-01-30T08:29:37;3.50;99.90
6841;DHT22;3458;53.678;14.080;2024-01-30T08:32:04;3.50;99.90
6841;DHT22;3458;53.678;14.080;2024-01-30T08:34:30;3.50;99.90
6841;DHT22;3458;53.678;14.080;2024-01-30T08:36:55;3.50;99.90
6841;DHT22;3458;53.678;14.080;2024-01-30T08:39:21;3.40;99.90
6841;DHT22;3458;53.678;14.080;2024-01-30T08:41:46;3.40;99.90
6841;DHT22;3458;53.678;14.080;2024-01-30T08:44:12;3.50;99.90
6841;DHT22;3458;53.678;14.080;2024-01-30T08:46:37;3.60;99.90
6841;DHT22;3458;53.678;14.080;2024-01-30T08:49:03;3.60;99.90
6841;DHT22;3458;53.678;14.080;2024-01-30T08:51:31;3.70;99.90
6841;DHT22;3458;53.678;14.080;2024-01-30T08:53:56;3.80;99.90
6841;DHT22;3458;53.678;14.080;2024-01-30T08:56:22;3.90;99.90
6841;DHT22;3458;53.678;14.080;2024-01-30T08:58:47;4.00;99.90
6841;DHT22;3458;53.678;14.080;2024-01-30T09:01:14;4.10;99.90
6841;DHT22;3458;53.678;14.080;2024-01-30T09:03:39;4.20;99.90
6841;DHT22;3458;53.678;14.080;2024-01-30T09:06:10;4.20;99.90
6841;DHT22;3458;53.678;14.080;2024-01-30T09:08:35;4.30;99.90
6841;DHT22;3458;53.678;14.080;2024-01-30T09:11:12;4.30;99.90
6841;DHT22;3458;53.678;14.080;2024-01-30T09:13:38;4.40;99.90
6841;DHT22;3458;53.678;14.080;2024-01-30T09:16:04;4.40;99.90
6841;DHT22;3458;53.678;14.080;2024-01-30T09:18:35;4.50;99.90
6841;DHT22;3458;53.678;14.080;2024-01-30T09:21:01;4.60;99.90
6841;DHT22;3458;53.678;14.080;2024-01-30T09:23:27;4.70;99.90
6841;DHT22;3458;53.678;14.080;2024-01-30T09:25:53;4.70;99.90
6841;DHT22;3458;53.678;14.080;2024-01-30T09:28:19;4.80;99.90
6841;DHT22;3458;53.678;14.080;2024-01-30T09:30:44;4.80;99.90
6841;DHT22;3458;53.678;14.080;2024-01-30T09:33:10;4.90;99.90
6841;DHT22;3458;53.678;14.080;2024-01-30T09:35:36;4.90;99.90
6841;DHT22;3458;53.678;14.080;2024-01-30T09:38:02;4.90;99.90
6841;DHT22;3458;53.678;14.080;2024-01-30T09:40:27;5.00;99.90
6841;DHT22;3458;53.678;14.080;2024-01-30T09:42:54;5.10;99.90
6841;DHT22;3458;53.678;14.080;2024-01-30T09:45:24;5.10;99.90
6841;DHT22;3458;53.678;14.080;2024-01-30T09:47:50;5.20;99.90
6841;DHT22;3458;53.678;14.080;2024-01-30T09:50:16;5.20;99.90
6841;DHT22;3458;53.678;14.080;2024-01-30T09:52:46;5.20;99.90
6841;DHT22;3458;53.678;14.080;2024-01-30T09:55:12;5.20;99.90
6841;DHT22;3458;53.678;14.080;2024-01-30T09:57:38;5.20;99.90
6841;DHT22;3458;53.678;14.080;2024-01-30T10:00:04;5.20;99.90
6841;DHT22;3458;53.678;14.080;2024-01-30T10:02:31;5.30;99.90
6841;DHT22;3458;53.678;14.080;2024-01-30T10:04:57;5.30;99.90
6841;DHT22;3458;53.678;14.080;2024-01-30T10:07:22;5.40;99.90
6841;DHT22;3458;53.678;14.080;2024-01-30T10:09:48;5.40;99.90
6841;DHT22;3458;53.678;14.080;2024-01-30T10:12:15;5.40;99.90
6841;DHT22;3458;53.678;14.080;2024-01-30T10:14:43;5.40;99.90
6841;DHT22;3458;53.678;14.080;2024-01-30T10:17:12;5.40;99.90
6841;DHT22;3458;53.678;14.080;2024-01-30T10:19:39;5.40;99.90
6841;DHT22;3458;53.678;14.080;2024-01-30T10:22:05;5.40;99.90
6841;DHT22;3458;53.678;14.080;2024-01-30T10:24:31;5.50;99.90
6841;DHT22;3458;53.678;14.080;2024-01-30T10:26:56;5.50;99.90
6841;DHT22;3458;53.678;14.080;2024-01-30T10:29:22;5.60;99.90
6841;DHT22;3458;53.678;14.080;2024-01-30T10:32:01;5.70;99.90
6841;DHT22;3458;53.678;14.080;2024-01-30T10:34:27;5.70;99.90
6841;DHT22;3458;53.678;14.080;2024-01-30T10:37:00;5.80;99.90
6841;DHT22;3458;53.678;14.080;2024-01-30T10:39:31;5.80;99.90
6841;DHT22;3458;53.678;14.080;2024-01-30T10:42:04;5.90;99.90
6841;DHT22;3458;53.678;14.080;2024-01-30T10:44:39;5.90;99.90
6841;DHT22;3458;53.678;14.080;2024-01-30T10:47:12;5.90;99.90
6841;DHT22;3458;53.678;14.080;2024-01-30T10:49:40;5.90;99.90
6841;DHT22;3458;53.678;14.080;2024-01-30T10:52:06;6.00;99.90
6841;DHT22;3458;53.678;14.080;2024-01-30T10:54:34;6.00;99.90
6841;DHT22;3458;53.678;14.080;2024-01-30T10:57:00;6.00;99.90
6841;DHT22;3458;53.678;14.080;2024-01-30T10:59:29;6.10;99.90
6841;DHT22;3458;53.678;14.080;2024-01-30T11:01:57;6.10;99.90
6841;DHT22;3458;53.678;14.080;2024-01-30T11:04:22;6.10;99.90
6841;DHT22;3458;53.678;14.080;2024-01-30T11:06:49;6.10;99.90
6841;DHT22;3458;53.678;14.080;2024-01-30T11:09:17;6.10;99.90
6841;DHT22;3458;53.678;14.080;2024-01-30T11:11:57;6.20;99.90
6841;DHT22;3458;53.678;14.080;2024-01-30T11:14:27;6.30;99.90
6841;DHT22;3458;53.678;14.080;2024-01-30T11:16:57;6.30;99.90
6841;DHT22;3458;53.678;14.080;2024-01-30T11:19:27;6.40;99.90
6841;DHT22;3458;53.678;14.080;2024-01-30T11:21:55;6.50;99.90
6841;DHT22;3458;53.678;14.080;2024-01-30T11:24:23;6.50;99.90
6841;DHT22;3458;53.678;14.080;2024-01-30T11:26:58;6.50;99.90
6841;DHT22;3458;53.678;14.080;2024-01-30T11:29:27;6.50;99.90
6841;DHT22;3458;53.678;14.080;2024-01-30T11:31:57;6.60;99.90
6841;DHT22;3458;53.678;14.080;2024-01-30T11:34:22;6.70;99.90
6841;DHT22;3458;53.678;14.080;2024-01-30T11:36:55;6.70;99.90
6841;DHT22;3458;53.678;14.080;2024-01-30T11:39:24;6.70;99.90
6841;DHT22;3458;53.678;14.080;2024-01-30T11:41:51;6.70;99.90
6841;DHT22;3458;53.678;14.080;2024-01-30T11:44:21;6.70;99.90
6841;DHT22;3458;53.678;14.080;2024-01-30T11:46:48;6.80;99.90
6841;DHT22;3458;53.678;14.080;2024-01-30T11:49:14;6.80;99.90
6841;DHT22;3458;53.678;14.080;2024-01-30T11:51:39;6.90;99.90
6841;DHT22;3458;53.678;14.080;2024-01-30T11:54:05;7.00;99.90
6841;DHT22;3458;53.678;14.080;2024-01-30T11:56:30;7.10;99.90
6841;DHT22;3458;53.678;14.080;2024-01-30T11:58:56;7.10;99.90
6841;DHT22;3458;53.678;14.080;2024-01-30T12:01:21;7.20;99.90
6841;DHT22;3458;53.678;14.080;2024-01-30T12:03:50;7.20;99.90
6841;DHT22;3458;53.678;14.080;2024-01-30T12:06:16;7.20;99.90
6841;DHT22;3458;53.678;14.080;2024-01-30T12:08:42;7.20;99.90
6841;DHT22;3458;53.678;14.080;2024-01-30T12:11:07;7.10;99.90
6841;DHT22;3458;53.678;14.080;2024-01-30T12:13:33;7.20;99.90
6841;DHT22;3458;53.678;14.080;2024-01-30T12:16:00;7.20;99.90
6841;DHT22;3458;53.678;14.080;2024-01-30T12:18:26;7.20;99.90
6841;DHT22;3458;53.678;14.080;2024-01-30T12:20:59;7.20;99.90
6841;DHT22;3458;53.678;14.080;2024-01-30T12:23:26;7.30;99.90
6841;DHT22;3458;53.678;14.080;2024-01-30T12:25:52;7.30;99.90
6841;DHT22;3458;53.678;14.080;2024-01-30T12:28:17;7.30;99.90
6841;DHT22;3458;53.678;14.080;2024-01-30T12:30:43;7.30;99.90
6841;DHT22;3458;53.678;14.080;2024-01-30T12:33:09;7.30;99.90
6841;DHT22;3458;53.678;14.080;2024-01-30T12:35:35;7.30;99.90
6841;DHT22;3458;53.678;14.080;2024-01-30T12:38:01;7.30;99.90
6841;DHT22;3458;53.678;14.080;2024-01-30T12:40:27;7.30;99.90
6841;DHT22;3458;53.678;14.080;2024-01-30T12:42:53;7.40;99.90
6841;DHT22;3458;53.678;14.080;2024-01-30T12:45:19;7.30;99.90
6841;DHT22;3458;53.678;14.080;2024-01-30T12:47:48;7.30;99.90
6841;DHT22;3458;53.678;14.080;2024-01-30T12:50:14;7.40;99.90
6841;DHT22;3458;53.678;14.080;2024-01-30T12:52:42;7.40;99.90
6841;DHT22;3458;53.678;14.080;2024-01-30T12:55:08;7.50;99.90
6841;DHT22;3458;53.678;14.080;2024-01-30T12:57:33;7.50;99.90
6841;DHT22;3458;53.678;14.080;2024-01-30T12:59:59;7.50;99.90
6841;DHT22;3458;53.678;14.080;2024-01-30T13:02:24;7.60;99.90
6841;DHT22;3458;53.678;14.080;2024-01-30T13:04:51;7.60;99.90
6841;DHT22;3458;53.678;14.080;2024-01-30T13:07:17;7.60;99.90
6841;DHT22;3458;53.678;14.080;2024-01-30T13:09:43;7.60;99.90
6841;DHT22;3458;53.678;14.080;2024-01-30T13:12:09;7.70;99.90
6841;DHT22;3458;53.678;14.080;2024-01-30T13:14:34;7.70;99.90
6841;DHT22;3458;53.678;14.080;2024-01-30T13:17:00;7.80;99.90
6841;DHT22;3458;53.678;14.080;2024-01-30T13:19:25;7.70;99.90
6841;DHT22;3458;53.678;14.080;2024-01-30T13:21:51;7.80;99.90
6841;DHT22;3458;53.678;14.080;2024-01-30T13:24:16;7.80;99.90
6841;DHT22;3458;53.678;14.080;2024-01-30T13:26:48;7.80;99.90
6841;DHT22;3458;53.678;14.080;2024-01-30T13:32:31;7.90;99.90
6841;DHT22;3458;53.678;14.080;2024-01-30T13:34:56;7.90;99.90
6841;DHT22;3458;53.678;14.080;2024-01-30T13:37:22;7.90;99.90
6841;DHT22;3458;53.678;14.080;2024-01-30T13:39:48;7.90;99.90
6841;DHT22;3458;53.678;14.080;2024-01-30T13:42:13;7.90;99.90
6841;DHT22;3458;53.678;14.080;2024-01-30T13:44:39;7.90;99.90
6841;DHT22;3458;53.678;14.080;2024-01-30T13:47:05;7.80;99.90
6841;DHT22;3458;53.678;14.080;2024-01-30T13:49:30;7.80;99.90
6841;DHT22;3458;53.678;14.080;2024-01-30T13:51:56;7.70;99.90
6841;DHT22;3458;53.678;14.080;2024-01-30T13:54:22;7.60;99.90
6841;DHT22;3458;53.678;14.080;2024-01-30T13:56:48;7.60;99.90
6841;DHT22;3458;53.678;14.080;2024-01-30T13:59:13;7.60;99.90
6841;DHT22;3458;53.678;14.080;2024-01-30T14:01:39;7.40;99.90
6841;DHT22;3458;53.678;14.080;2024-01-30T14:04:04;7.40;99.90
6841;DHT22;3458;53.678;14.080;2024-01-30T14:06:30;7.30;99.90
6841;DHT22;3458;53.678;14.080;2024-01-30T14:08:55;7.30;99.90
6841;DHT22;3458;53.678;14.080;2024-01-30T14:11:21;7.20;99.90
6841;DHT22;3458;53.678;14.080;2024-01-30T14:13:46;7.10;99.90
6841;DHT22;3458;53.678;14.080;2024-01-30T14:16:12;7.10;99.90
6841;DHT22;3458;53.678;14.080;2024-01-30T14:18:37;7.00;99.90
6841;DHT22;3458;53.678;14.080;2024-01-30T14:21:05;7.00;99.90
6841;DHT22;3458;53.678;14.080;2024-01-30T14:23:32;6.90;99.90
6841;DHT22;3458;53.678;14.080;2024-01-30T14:25:57;6.90;99.90
6841;DHT22;3458;53.678;14.080;2024-01-30T14:28:33;6.80;99.90
6841;DHT22;3458;53.678;14.080;2024-01-30T14:31:01;6.80;99.90
6841;DHT22;3458;53.678;14.080;2024-01-30T14:33:27;6.80;99.90
6841;DHT22;3458;53.678;14.080;2024-01-30T14:35:52;6.80;99.90
6841;DHT22;3458;53.678;14.080;2024-01-30T14:38:18;6.70;99.90
6841;DHT22;3458;53.678;14.080;2024-01-30T14:40:44;6.70;99.90
6841;DHT22;3458;53.678;14.080;2024-01-30T14:43:09;6.70;99.90
6841;DHT22;3458;53.678;14.080;2024-01-30T14:45:35;6.60;99.90
6841;DHT22;3458;53.678;14.080;2024-01-30T14:48:00;6.50;99.90
6841;DHT22;3458;53.678;14.080;2024-01-30T14:50:26;6.50;99.90
6841;DHT22;3458;53.678;14.080;2024-01-30T14:52:53;6.40;99.90
6841;DHT22;3458;53.678;14.080;2024-01-30T14:55:19;6.40;99.90
6841;DHT22;3458;53.678;14.080;2024-01-30T14:57:46;6.40;99.90
6841;DHT22;3458;53.678;14.080;2024-01-30T15:00:13;6.30;99.90
6841;DHT22;3458;53.678;14.080;2024-01-30T15:02:39;6.30;99.90
6841;DHT22;3458;53.678;14.080;2024-01-30T15:05:05;6.30;99.90
6841;DHT22;3458;53.678;14.080;2024-01-30T15:07:30;6.20;99.90
6841;DHT22;3458;53.678;14.080;2024-01-30T15:09:56;6.20;99.90
6841;DHT22;3458;53.678;14.080;2024-01-30T15:12:21;6.20;99.90
6841;DHT22;3458;53.678;14.080;2024-01-30T15:14:49;6.20;99.90
6841;DHT22;3458;53.678;14.080;2024-01-30T15:17:19;6.10;99.90
6841;DHT22;3458;53.678;14.080;2024-01-30T15:19:47;6.10;99.90
6841;DHT22;3458;53.678;14.080;2024-01-30T15:22:23;6.10;99.90
6841;DHT22;3458;53.678;14.080;2024-01-30T15:24:49;6.00;99.90
6841;DHT22;3458;53.678;14.080;2024-01-30T15:27:17;6.00;99.90
6841;DHT22;3458;53.678;14.080;2024-01-30T15:29:47;6.00;99.90
6841;DHT22;3458;53.678;14.080;2024-01-30T15:32:13;6.00;99.90
6841;DHT22;3458;53.678;14.080;2024-01-30T15:34:38;6.00;99.90
6841;DHT22;3458;53.678;14.080;2024-01-30T15:37:05;5.90;99.90
6841;DHT22;3458;53.678;14.080;2024-01-30T15:39:30;6.00;99.90
6841;DHT22;3458;53.678;14.080;2024-01-30T15:41:58;6.00;99.90
6841;DHT22;3458;53.678;14.080;2024-01-30T15:44:24;5.90;99.90
6841;DHT22;3458;53.678;14.080;2024-01-30T15:46:49;5.90;99.90
6841;DHT22;3458;53.678;14.080;2024-01-30T15:49:15;5.90;99.90
6841;DHT22;3458;53.678;14.080;2024-01-30T15:51:40;5.90;99.90
6841;DHT22;3458;53.678;14.080;2024-01-30T15:54:06;5.90;99.90
6841;DHT22;3458;53.678;14.080;2024-01-30T15:56:31;5.80;99.90
6841;DHT22;3458;53.678;14.080;2024-01-30T15:59:00;5.80;99.90